Valley Falls, KS

4:28 PM CDT on May 06, 2015 (GMT -0500)
Kansas City International | | Change Station
CLOSE
Current Station
Airport
Location: Kansas City International,
Elevation: 1024 ft
Nearby Weather Stations

Elev 1024 ft 39.30 °N, 94.73 °W | Updated 35 minutes ago

Overcast
Overcast
66 °F
Feels Like 66 °F
N
21
Wind Variable Wind from South
Gusts 29 mph

Today
High -- | Low -- °F
--% Chance of Precip.
Yesterday
High -- | Low -- °F
Precip. -- in
6:17 AM 8:19 PM
Waning Gibbous, 92% visible
Pressure 29.91 in
Visibility 10.0 miles
Clouds Scattered Clouds 5500 ft
Mostly Cloudy 10000 ft
Overcast 14000 ft
Dew Point 58 °F
Humidity 75%
Rainfall 0.00 in
Snow Depth Not available.
UV 2 out of 12
Pollen 4.10 out of 12
Air Quality Not available.
Flu Activity Sporadic
METAR KMCI 062053Z 17018G25KT 10SM -TSRA SCT055CB BKN100 OVC140 19/14 A2993 RMK AO2 PK WND 18033/2013 RAB50 TSB50 SLP129 OCNL LTGIC SW TS SW-W MOV NE CB DSNT NE-S VIRGA W P0000 60000 T01890144 55011

More Conditions Fewer Conditions

Pressure 29.91 in
Visibility 10.0 miles
Clouds Scattered Clouds 5500 ft
Mostly Cloudy 10000 ft
Overcast 14000 ft
Dew Point 58 °F
Humidity 75%
Rainfall 0.00 in
Snow Depth Not available.
UV 2 out of 12
Pollen 4.10 out of 12
Air Quality Not available.
Flu Activity Sporadic
METAR KMCI 062053Z 17018G25KT 10SM -TSRA SCT055CB BKN100 OVC140 19/14 A2993 RMK AO2 PK WND 18033/2013 RAB50 TSB50 SLP129 OCNL LTGIC SW TS SW-W MOV NE CB DSNT NE-S VIRGA W P0000 60000 T01890144 55011

More Conditions Fewer Conditions

10-Day Weather Forecast

Almanac

Astronomy

May. 06, 2015 Rise Set
Actual Time
Civil Twilight
Nautical Twilight
Astronomical Twilight
Moon
Length of Visible Light
Length of Day
Tomorrow will be .
, % of the Moon is Illuminated

Today's Extremes

State Highs State Lows

Community

WunderPhotos

Upload Photos

1,819,021 photos uploaded!

WunderBlogs® & News

Nearby

Air Quality

  Air Quality AQ Index Pollutant
Not available.

Snow Depth

Station Depth Elevation

Earthquake Activity

City Distance Mag. Time & Date
Minimum magnitude displayed is 2.5.

Coastal Water Temperatures

Place Temperature

Stations

Nearby Weather Stations

Station Location Temp. Windchill Dew Point Humidity Wind Precip. Elev Updated Type